Time;durP1;ratioP1;P1;durP2;ratioP2;P2;SDS_P1;SDS_P2;PMS_P1;PMS_P2;Temp;Humidity;BMP_temperature;BMP_pressure;BME280_temperature;BME280_humidity;BME280_pressure;Samples;Min_cycle;Max_cycle;Signal;HPM_P1;HPM_P2
2022/01/05 00:00:04;;;;;;;;;;;;;;;4.87;81.33;98597.88;5014900;28;1176;-88
2022/01/05 00:02:30;;;;;;;;;;;;;;;4.84;81.38;98609.34;5015691;28;1322;-88
2022/01/05 00:04:55;;;;;;;;;;;;;;;4.85;81.09;98597.38;5028273;28;1240;-86
2022/01/05 00:07:20;;;;;;;;;;;;;;;4.80;80.81;98600.16;5018279;28;1874;-86
2022/01/05 00:09:45;;;;;;;;;;;;;;;4.78;79.95;98596.91;5023682;28;1453;-87
2022/01/05 00:12:11;;;;;;;;;;;;;;;4.75;80.31;98602.13;4995708;28;1275;-88
2022/01/05 00:14:36;;;;;;;;;;;;;;;4.72;79.47;98598.06;4993315;28;1298;-87
2022/01/05 00:17:01;;;;;;;;;;;;;;;4.76;79.21;98596.41;4992973;28;1208;-89
2022/01/05 00:19:26;;;;;;;;;;;;;;;4.86;79.67;98596.28;5008176;28;1488;-88
2022/01/05 00:21:51;;;;;;;;;;;;;;;4.92;79.60;98597.03;5012673;28;1676;-89
2022/01/05 00:24:17;;;;;;;;;;;;;;;4.94;79.10;98600.25;5012846;28;1259;-88
2022/01/05 00:26:42;;;;;;;;;;;;;;;4.91;78.61;98601.66;5012416;28;1902;-89
2022/01/05 00:29:07;;;;;;;;;;;;;;;4.79;77.85;98619.41;5012527;28;1211;-88
2022/01/05 00:31:32;;;;;;;;;;;;;;;4.81;78.03;98614.50;5012401;28;1176;-88
2022/01/05 00:33:57;;;;;;;;;;;;;;;4.77;77.72;98608.84;5000080;28;1763;-88
2022/01/05 00:36:23;;;;;;;;;;;;;;;4.77;77.96;98608.03;4992774;28;1282;-88
2022/01/05 00:38:48;;;;;;;;;;;;;;;4.76;77.32;98599.13;4993751;28;1060;-88
2022/01/05 00:41:13;;;;;;;;;;;;;;;4.78;77.00;98604.22;4993913;28;1016;-88
2022/01/05 00:43:39;;;;;;;;;;;;;;;4.74;76.62;98608.63;4992957;28;1311;-86
2022/01/05 00:46:04;;;;;;;;;;;;;;;4.75;76.58;98615.66;4992846;28;1906;-87
2022/01/05 00:48:30;;;;;;;;;;;;;;;4.76;76.58;98620.81;4992679;28;1359;-88
2022/01/05 00:50:58;;;;;;;;;;;;;;;4.76;76.98;98618.09;4992663;28;1212;-87
2022/01/05 00:53:23;;;;;;;;;;;;;;;4.75;76.90;98611.06;4993870;28;858;-87
2022/01/05 00:55:48;;;;;;;;;;;;;;;4.69;77.15;98614.09;4992785;28;1123;-88
2022/01/05 00:58:13;;;;;;;;;;;;;;;4.74;76.95;98612.16;4992352;28;1213;-88
2022/01/05 01:00:38;;;;;;;;;;;;;;;4.65;76.77;98615.78;4992630;28;977;-88
2022/01/05 01:03:03;;;;;;;;;;;;;;;4.64;76.66;98623.09;4992567;28;1233;-88
2022/01/05 01:05:29;;;;;;;;;;;;;;;4.61;76.70;98620.94;4993463;28;1974;-89
2022/01/05 01:07:54;;;;;;;;;;;;;;;4.60;76.72;98624.75;4995174;28;1341;-88
2022/01/05 01:10:19;;;;;;;;;;;;;;;4.55;76.79;98617.50;5014790;28;1196;-87
2022/01/05 01:12:44;;;;;;;;;;;;;;;4.57;76.78;98625.34;5017073;28;1077;-89
2022/01/05 01:15:11;;;;;;;;;;;;;;;4.63;77.35;98626.09;5015457;28;1755;-88
2022/01/05 01:17:36;;;;;;;;;;;;;;;4.56;77.08;98629.16;5015408;28;1304;-88
2022/01/05 01:20:02;;;;;;;;;;;;;;;4.53;77.67;98625.09;5015106;28;1257;-88
2022/01/05 01:22:30;;;;;;;;;;;;;;;4.50;77.49;98625.69;5015132;28;1263;-88
2022/01/05 01:24:55;;;;;;;;;;;;;;;4.52;77.58;98622.66;5017482;28;857;-88
2022/01/05 01:27:20;;;;;;;;;;;;;;;4.53;77.44;98622.38;5015435;28;1897;-88
2022/01/05 01:29:45;;;;;;;;;;;;;;;4.53;77.64;98621.56;5017142;28;1469;-88
2022/01/05 01:32:10;;;;;;;;;;;;;;;4.53;77.90;98627.00;5005117;28;1723;-88
2022/01/05 01:34:35;;;;;;;;;;;;;;;4.50;77.53;98631.09;5000531;28;1668;-86
2022/01/05 01:37:01;;;;;;;;;;;;;;;4.51;77.59;98623.75;5014867;28;1201;-88
2022/01/05 01:39:26;;;;;;;;;;;;;;;4.45;77.57;98638.47;5014761;28;1160;-86
2022/01/05 01:41:51;;;;;;;;;;;;;;;4.37;77.70;98630.97;5015021;28;997;-88
2022/01/05 01:44:17;;;;;;;;;;;;;;;4.22;77.33;98622.97;5015124;28;1041;-87
2022/01/05 01:46:42;;;;;;;;;;;;;;;4.22;77.65;98637.31;5014739;28;1890;-88
2022/01/05 01:49:08;;;;;;;;;;;;;;;4.14;77.65;98637.94;5014568;28;1476;-88
2022/01/05 01:51:33;;;;;;;;;;;;;;;4.21;77.60;98635.72;5014885;28;1351;-88
2022/01/05 01:53:58;;;;;;;;;;;;;;;4.18;77.51;98639.78;5014903;28;1192;-87
2022/01/05 01:56:24;;;;;;;;;;;;;;;4.11;77.53;98641.22;5014753;28;1209;-88
2022/01/05 01:58:50;;;;;;;;;;;;;;;4.11;77.71;98636.59;5014354;28;1244;-88
2022/01/05 02:01:16;;;;;;;;;;;;;;;4.21;77.95;98637.59;5014468;28;1347;-88
2022/01/05 02:03:41;;;;;;;;;;;;;;;4.19;77.80;98646.00;5014616;28;1320;-87
2022/01/05 02:06:06;;;;;;;;;;;;;;;4.23;77.99;98643.56;5014670;28;1953;-86
2022/01/05 02:08:33;;;;;;;;;;;;;;;4.29;77.85;98648.63;5014439;28;1453;-87
2022/01/05 02:10:58;;;;;;;;;;;;;;;4.25;77.78;98639.47;5015427;28;1161;-89
2022/01/05 02:13:23;;;;;;;;;;;;;;;4.23;78.11;98640.84;5014357;28;1303;-88
2022/01/05 02:15:48;;;;;;;;;;;;;;;4.21;77.99;98635.72;5014272;28;1694;-89
2022/01/05 02:20:48;;;;;;;;;;;;;;;4.07;78.49;98649.09;5015875;28;822;-88
2022/01/05 02:23:13;;;;;;;;;;;;;;;4.08;78.95;98644.50;5014289;28;1366;-88
2022/01/05 02:25:39;;;;;;;;;;;;;;;3.88;78.80;98609.47;5011728;28;1894;-89
2022/01/05 02:28:04;;;;;;;;;;;;;;;4.04;78.58;98648.84;4994726;28;1198;-87
2022/01/05 02:30:30;;;;;;;;;;;;;;;4.04;78.85;98652.38;4994376;28;1775;-86
2022/01/05 02:32:55;;;;;;;;;;;;;;;4.13;78.66;98647.16;4994416;28;1249;-86
2022/01/05 02:35:20;;;;;;;;;;;;;;;4.12;78.25;98651.75;4994258;28;1192;-87
2022/01/05 02:37:47;;;;;;;;;;;;;;;4.08;78.28;98656.09;4996983;28;1468;-87
2022/01/05 02:40:14;;;;;;;;;;;;;;;4.13;78.58;98650.66;5013800;28;1148;-87
2022/01/05 02:42:39;;;;;;;;;;;;;;;4.16;78.33;98647.41;5014184;28;1180;-88
2022/01/05 02:45:04;;;;;;;;;;;;;;;4.16;78.38;98650.13;5013983;28;1202;-88
2022/01/05 02:47:30;;;;;;;;;;;;;;;4.11;77.73;98650.13;5013634;28;1966;-87
2022/01/05 02:49:57;;;;;;;;;;;;;;;4.14;77.81;98644.16;5013447;28;1336;-88
2022/01/05 02:52:23;;;;;;;;;;;;;;;4.14;78.03;98646.88;5013895;28;1306;-86
2022/01/05 02:54:48;;;;;;;;;;;;;;;4.17;78.07;98646.28;5013616;28;1288;-88
2022/01/05 02:57:13;;;;;;;;;;;;;;;4.18;78.00;98647.09;5013918;28;1202;-87
2022/01/05 02:59:38;;;;;;;;;;;;;;;4.10;77.44;98650.41;5013485;28;1366;-88
2022/01/05 03:02:04;;;;;;;;;;;;;;;4.02;77.44;98651.03;5013549;28;849;-88
2022/01/05 03:04:29;;;;;;;;;;;;;;;3.95;77.77;98653.25;5013835;28;1514;-88
2022/01/05 03:06:54;;;;;;;;;;;;;;;3.92;77.76;98651.91;5014686;28;1871;-88
2022/01/05 03:09:19;;;;;;;;;;;;;;;3.88;77.95;98655.47;5013389;28;1520;-88
2022/01/05 03:11:44;;;;;;;;;;;;;;;4.00;78.12;98659.41;5014781;28;822;-87
2022/01/05 03:14:09;;;;;;;;;;;;;;;4.04;78.23;98663.19;5013686;28;1180;-87
2022/01/05 03:16:35;;;;;;;;;;;;;;;4.08;78.24;98666.16;5014440;28;1197;-87
2022/01/05 03:19:00;;;;;;;;;;;;;;;4.06;78.39;98671.03;5002461;28;1699;-87
2022/01/05 03:21:25;;;;;;;;;;;;;;;3.92;78.37;98673.56;4994245;28;907;-88
2022/01/05 03:23:50;;;;;;;;;;;;;;;3.79;78.50;98685.84;4994262;28;1046;-88
2022/01/05 03:26:15;;;;;;;;;;;;;;;3.82;78.30;98683.66;4995031;28;1910;-88
2022/01/05 03:28:41;;;;;;;;;;;;;;;3.93;78.29;98691.41;5001322;28;1763;-87
2022/01/05 03:31:06;;;;;;;;;;;;;;;3.96;77.76;98696.28;5011376;28;1677;-88
2022/01/05 03:33:31;;;;;;;;;;;;;;;3.97;77.44;98703.31;5005888;28;1203;-88
2022/01/05 03:35:56;;;;;;;;;;;;;;;4.01;77.42;98709.75;4993074;28;1418;-88
2022/01/05 03:38:24;;;;;;;;;;;;;;;4.11;77.44;98706.19;5011381;28;1370;-89
2022/01/05 03:40:49;;;;;;;;;;;;;;;4.13;77.25;98717.53;5014344;28;846;-89
2022/01/05 03:43:14;;;;;;;;;;;;;;;4.06;77.55;98712.47;5014446;28;1020;-88
2022/01/05 03:45:40;;;;;;;;;;;;;;;4.00;77.25;98718.97;5012994;28;1967;-88
2022/01/05 03:48:06;;;;;;;;;;;;;;;3.95;76.90;98723.63;5012562;28;1223;-88
2022/01/05 03:50:32;;;;;;;;;;;;;;;3.94;76.80;98717.41;5012724;28;1548;-87
2022/01/05 03:52:57;;;;;;;;;;;;;;;3.91;76.58;98717.16;4995919;28;1759;-88
2022/01/05 03:55:22;;;;;;;;;;;;;;;3.86;76.29;98718.00;4993112;28;1268;-87
2022/01/05 03:57:47;;;;;;;;;;;;;;;3.94;76.54;98722.81;4992942;28;1414;-87
2022/01/05 04:00:13;;;;;;;;;;;;;;;3.91;76.24;98722.59;5008708;28;1564;-88
2022/01/05 04:02:38;;;;;;;;;;;;;;;3.93;76.28;98726.59;5012606;28;1239;-88
2022/01/05 04:05:04;;;;;;;;;;;;;;;3.84;76.58;98717.47;5012770;28;1367;-88
2022/01/05 04:07:29;;;;;;;;;;;;;;;3.82;76.70;98721.56;5012623;28;1886;-88
2022/01/05 04:09:54;;;;;;;;;;;;;;;3.84;76.70;98714.75;5013735;28;1117;-88
2022/01/05 04:12:19;;;;;;;;;;;;;;;3.86;76.72;98715.28;5014053;28;802;-88
2022/01/05 04:14:44;;;;;;;;;;;;;;;3.90;76.63;98724.47;5013725;28;1095;-88
2022/01/05 04:17:09;;;;;;;;;;;;;;;3.82;76.60;98732.38;5013067;28;1296;-89
2022/01/05 04:19:35;;;;;;;;;;;;;;;3.83;76.41;98726.66;5012847;28;1204;-89
2022/01/05 04:22:00;;;;;;;;;;;;;;;3.78;76.29;98729.41;5012989;28;1338;-89
2022/01/05 04:24:25;;;;;;;;;;;;;;;3.80;76.44;98730.75;5014991;28;1105;-89
2022/01/05 04:26:50;;;;;;;;;;;;;;;3.82;76.13;98735.91;5013868;28;1870;-89
2022/01/05 04:29:16;;;;;;;;;;;;;;;3.79;76.40;98741.84;5014423;28;850;-87
2022/01/05 04:31:41;;;;;;;;;;;;;;;3.74;76.13;98737.25;5020948;28;1253;-87
2022/01/05 04:34:06;;;;;;;;;;;;;;;3.75;76.01;98738.06;5038784;28;890;-88
2022/01/05 04:36:31;;;;;;;;;;;;;;;3.85;75.93;98740.72;5036192;28;1360;-89
2022/01/05 04:38:56;;;;;;;;;;;;;;;3.75;75.70;98751.59;5014046;28;1339;-88
2022/01/05 04:41:22;;;;;;;;;;;;;;;3.78;75.99;98737.53;5013803;28;1047;-89
2022/01/05 04:43:47;;;;;;;;;;;;;;;3.89;75.63;98741.81;5013338;28;985;-89
2022/01/05 04:46:12;;;;;;;;;;;;;;;3.86;75.47;98755.06;5017872;28;1918;-88
2022/01/05 04:48:37;;;;;;;;;;;;;;;3.75;75.51;98752.41;5035143;28;1321;-89
2022/01/05 04:51:02;;;;;;;;;;;;;;;3.70;75.39;98754.34;5018120;28;1333;-90
2022/01/05 04:53:28;;;;;;;;;;;;;;;3.65;75.38;98757.09;5017961;28;1335;-90
2022/01/05 04:55:53;;;;;;;;;;;;;;;3.63;75.10;98764.66;5017489;28;930;-88
2022/01/05 04:58:18;;;;;;;;;;;;;;;3.60;75.33;98768.72;5017377;28;1271;-89
2022/01/05 05:00:44;;;;;;;;;;;;;;;3.63;74.82;98767.38;5016167;28;1523;-90
2022/01/05 05:03:09;;;;;;;;;;;;;;;3.59;74.65;98779.81;5017605;28;1040;-89
2022/01/05 05:05:35;;;;;;;;;;;;;;;3.61;74.80;98766.84;5015743;28;1961;-91
2022/01/05 05:08:01;;;;;;;;;;;;;;;3.64;74.69;98774.41;5015964;28;1290;-89
2022/01/05 05:10:26;;;;;;;;;;;;;;;3.54;74.19;98769.03;5011781;28;1782;-90
2022/01/05 05:12:51;;;;;;;;;;;;;;;3.45;74.30;98798.53;4997096;28;922;-91
2022/01/05 05:15:16;;;;;;;;;;;;;;;3.40;74.13;98785.06;4996802;28;1351;-91
2022/01/05 05:17:42;;;;;;;;;;;;;;;3.40;74.00;98783.13;4997039;28;1192;-89
2022/01/05 05:20:07;;;;;;;;;;;;;;;3.42;74.37;98793.69;5009481;28;1548;-89
2022/01/05 05:22:35;;;;;;;;;;;;;;;3.38;74.18;98792.63;5015963;28;1184;-90
2022/01/05 05:25:00;;;;;;;;;;;;;;;3.36;73.86;98801.00;5016268;28;1346;-89
2022/01/05 05:27:26;;;;;;;;;;;;;;;3.30;74.47;98802.13;5015295;28;1964;-88
2022/01/05 05:29:51;;;;;;;;;;;;;;;3.35;74.24;98799.38;5015131;28;1157;-90
2022/01/05 05:32:16;;;;;;;;;;;;;;;3.36;74.33;98801.00;5015639;28;851;-92
2022/01/05 05:34:41;;;;;;;;;;;;;;;3.34;74.12;98824.00;5015672;28;1023;-90
2022/01/05 05:37:06;;;;;;;;;;;;;;;3.33;74.40;98811.53;4995958;28;1782;-90
2022/01/05 05:39:33;;;;;;;;;;;;;;;3.36;74.10;98819.94;4997539;28;1128;-91
2022/01/05 05:41:58;;;;;;;;;;;;;;;3.34;74.35;98807.75;4997329;28;1321;-92
2022/01/05 05:44:23;;;;;;;;;;;;;;;3.36;74.81;98813.72;4996910;28;1376;-91
2022/01/05 05:46:49;;;;;;;;;;;;;;;3.29;74.99;98822.13;4997284;28;1886;-90
2022/01/05 05:49:14;;;;;;;;;;;;;;;3.34;74.78;98816.69;4995566;28;1255;-90
2022/01/05 05:51:39;;;;;;;;;;;;;;;3.45;74.63;98814.78;4995880;28;1222;-91
2022/01/05 05:54:04;;;;;;;;;;;;;;;3.41;74.63;98810.97;4995680;28;1304;-90
2022/01/05 05:56:29;;;;;;;;;;;;;;;3.39;74.44;98805.06;4995267;28;1233;-91
2022/01/05 05:58:55;;;;;;;;;;;;;;;3.20;74.38;98812.94;4995405;28;1189;-91
2022/01/05 06:01:20;;;;;;;;;;;;;;;3.21;75.03;98819.16;4995485;28;1228;-90
2022/01/05 06:03:45;;;;;;;;;;;;;;;3.23;74.45;98809.69;4996843;28;796;-90
2022/01/05 06:06:10;;;;;;;;;;;;;;;3.25;74.88;98814.81;4995500;28;1943;-90
2022/01/05 06:08:35;;;;;;;;;;;;;;;3.28;74.66;98822.38;4994785;28;1262;-89
2022/01/05 06:11:00;;;;;;;;;;;;;;;3.32;74.45;98812.63;5024411;28;1745;-88
2022/01/05 06:13:26;;;;;;;;;;;;;;;3.28;74.49;98820.50;5013855;28;1227;-87
2022/01/05 06:15:51;;;;;;;;;;;;;;;3.19;74.84;98822.13;5014369;28;1524;-88
2022/01/05 06:18:16;;;;;;;;;;;;;;;3.19;74.33;98824.03;5006120;28;1130;-89
2022/01/05 06:20:42;;;;;;;;;;;;;;;3.15;74.81;98817.56;5013942;28;1488;-89
2022/01/05 06:23:07;;;;;;;;;;;;;;;3.12;74.52;98826.22;5015420;28;1878;-88
2022/01/05 06:25:32;;;;;;;;;;;;;;;3.08;74.56;98831.34;5014526;28;1894;-89
2022/01/05 06:27:57;;;;;;;;;;;;;;;3.01;74.93;98839.72;5015550;28;1233;-88
2022/01/05 06:30:22;;;;;;;;;;;;;;;3.00;74.57;98835.41;5015486;28;1016;-89
2022/01/05 06:32:48;;;;;;;;;;;;;;;2.92;74.50;98840.53;5017185;28;814;-87
2022/01/05 06:35:14;;;;;;;;;;;;;;;2.91;75.00;98839.72;5015291;28;1208;-87
2022/01/05 06:37:39;;;;;;;;;;;;;;;2.95;74.76;98838.13;5015080;28;1256;-88
2022/01/05 06:40:05;;;;;;;;;;;;;;;2.98;74.45;98851.06;5014332;28;1512;-88
2022/01/05 06:42:30;;;;;;;;;;;;;;;2.97;74.77;98844.06;5013991;28;1362;-90
2022/01/05 06:44:55;;;;;;;;;;;;;;;2.94;74.55;98839.19;5014334;28;1077;-90
2022/01/05 06:47:20;;;;;;;;;;;;;;;2.85;73.94;98848.94;5014070;28;1898;-89
2022/01/05 06:49:45;;;;;;;;;;;;;;;2.83;74.67;98845.69;5015053;28;1849;-89
2022/01/05 06:52:12;;;;;;;;;;;;;;;2.81;74.71;98858.63;5014022;28;1012;-89
2022/01/05 06:54:37;;;;;;;;;;;;;;;2.82;74.01;98856.75;5014533;28;1416;-90
2022/01/05 06:57:02;;;;;;;;;;;;;;;2.80;73.84;98856.22;5015359;28;1202;-90
2022/01/05 06:59:27;;;;;;;;;;;;;;;2.77;74.25;98859.47;5013812;28;1332;-91
2022/01/05 07:01:53;;;;;;;;;;;;;;;2.74;73.86;98855.41;5014074;28;1127;-88
2022/01/05 07:04:18;;;;;;;;;;;;;;;2.73;73.90;98850.25;5014314;28;1116;-88
2022/01/05 07:06:43;;;;;;;;;;;;;;;2.72;73.99;98856.78;5013198;28;1961;-91
2022/01/05 07:09:08;;;;;;;;;;;;;;;2.75;73.97;98864.31;5005984;28;1739;-88
2022/01/05 07:11:35;;;;;;;;;;;;;;;2.79;73.86;98858.13;4998668;28;973;-87
2022/01/05 07:14:01;;;;;;;;;;;;;;;2.86;73.49;98865.94;4997180;28;1098;-89
2022/01/05 07:16:26;;;;;;;;;;;;;;;2.91;73.87;98855.13;4994077;28;1293;-89
2022/01/05 07:18:51;;;;;;;;;;;;;;;2.89;73.65;98863.50;4995703;28;819;-89
2022/01/05 07:21:16;;;;;;;;;;;;;;;2.95;73.57;98865.16;4994114;28;1040;-89
2022/01/05 07:23:41;;;;;;;;;;;;;;;3.04;73.44;98878.94;4993621;28;984;-90
2022/01/05 07:26:07;;;;;;;;;;;;;;;3.08;73.40;98881.88;4995651;28;2016;-88
2022/01/05 07:28:32;;;;;;;;;;;;;;;3.06;73.63;98884.88;4993974;28;1272;-89
2022/01/05 07:30:57;;;;;;;;;;;;;;;3.05;73.63;98894.06;4993992;28;1308;-89
2022/01/05 07:33:24;;;;;;;;;;;;;;;3.08;73.14;98901.63;4994730;28;1068;-89
2022/01/05 07:35:49;;;;;;;;;;;;;;;3.11;72.89;98894.88;5000985;28;1686;-91
2022/01/05 07:38:15;;;;;;;;;;;;;;;3.07;73.18;98900.00;5013395;28;1319;-91
2022/01/05 07:40:40;;;;;;;;;;;;;;;3.08;73.11;98895.41;5013451;28;1235;-89
2022/01/05 07:43:06;;;;;;;;;;;;;;;3.05;72.96;98894.06;5013375;28;1331;-89
2022/01/05 07:45:32;;;;;;;;;;;;;;;2.98;73.06;98904.31;5013787;28;1902;-90
2022/01/05 07:47:57;;;;;;;;;;;;;;;2.99;72.83;98914.84;5013325;28;1527;-90
2022/01/05 07:50:22;;;;;;;;;;;;;;;2.98;72.45;98907.00;5008981;28;1719;-91
2022/01/05 07:52:47;;;;;;;;;;;;;;;2.96;72.00;98909.19;5013415;28;1664;-90
2022/01/05 07:55:12;;;;;;;;;;;;;;;2.94;71.96;98916.75;5013397;28;901;-90
2022/01/05 07:57:38;;;;;;;;;;;;;;;2.98;71.92;98917.81;5013718;28;1351;-90
2022/01/05 08:00:07;;;;;;;;;;;;;;;3.08;72.40;98911.63;5008603;28;1802;-89
2022/01/05 08:02:32;;;;;;;;;;;;;;;3.09;72.25;98911.34;4993578;28;1221;-89
2022/01/05 08:04:58;;;;;;;;;;;;;;;3.10;71.95;98912.16;4993855;28;1213;-89
2022/01/05 08:07:23;;;;;;;;;;;;;;;3.14;72.13;98905.97;5011236;28;1889;-90
2022/01/05 08:09:48;;;;;;;;;;;;;;;3.09;72.40;98908.66;4994607;28;1315;-91
2022/01/05 08:12:13;;;;;;;;;;;;;;;3.08;71.40;98911.63;4994346;28;1221;-90
2022/01/05 08:14:38;;;;;;;;;;;;;;;3.09;71.28;98900.53;4993913;28;1261;-91
2022/01/05 08:17:04;;;;;;;;;;;;;;;3.15;71.17;98909.47;4993888;28;1323;-92
2022/01/05 08:19:29;;;;;;;;;;;;;;;3.17;71.62;98910.00;4997326;28;1158;-91
2022/01/05 08:21:54;;;;;;;;;;;;;;;3.14;70.86;98908.66;4997721;28;1265;-91
2022/01/05 08:24:19;;;;;;;;;;;;;;;3.15;70.98;98915.66;4997685;28;1103;-90
2022/01/05 08:26:44;;;;;;;;;;;;;;;3.17;71.44;98918.91;4997483;28;1965;-91
2022/01/05 08:29:10;;;;;;;;;;;;;;;3.20;70.91;98918.38;4997600;28;1213;-90
2022/01/05 08:31:35;;;;;;;;;;;;;;;3.19;70.71;98927.56;4998346;28;1336;-89
2022/01/05 08:34:00;;;;;;;;;;;;;;;3.17;70.62;98916.22;4998055;28;1172;-90
2022/01/05 08:36:26;;;;;;;;;;;;;;;3.20;70.74;98920.28;4999867;28;2020;-90
2022/01/05 08:38:56;;;;;;;;;;;;;;;3.18;70.88;98927.84;5021283;28;1759;-93
2022/01/05 08:41:22;;;;;;;;;;;;;;;3.24;70.76;98927.56;5018640;28;1347;-92
2022/01/05 08:43:54;;;;;;;;;;;;;;;3.23;70.40;98947.56;5017029;28;1539;-90
2022/01/05 08:46:21;;;;;;;;;;;;;;;3.19;70.52;98937.56;5017830;28;1898;-92
2022/01/05 08:48:47;;;;;;;;;;;;;;;3.16;70.64;98936.22;5017222;28;1051;-91
2022/01/05 08:51:12;;;;;;;;;;;;;;;3.19;70.70;98941.09;5017038;28;1343;-90
2022/01/05 08:53:38;;;;;;;;;;;;;;;3.21;71.01;98938.13;5018416;28;1288;-92
2022/01/05 08:56:29;;;;;;;;;;;;;;;3.18;70.47;98944.88;5006587;28;1293;-92
2022/01/05 08:58:54;;;;;;;;;;;;;;;3.18;71.08;98927.84;5018440;28;1602;-92
2022/01/05 09:01:23;;;;;;;;;;;;;;;3.23;70.97;98934.03;5018349;28;1560;-93
2022/01/05 09:03:52;;;;;;;;;;;;;;;3.23;70.56;98935.97;5021013;28;1230;-92
2022/01/05 09:06:28;;;;;;;;;;;;;;;3.21;70.54;98932.72;5023003;28;1952;-91
2022/01/05 09:08:53;;;;;;;;;;;;;;;3.24;71.07;98921.34;5020901;28;1262;-90
2022/01/05 09:11:21;;;;;;;;;;;;;;;3.25;70.78;98922.97;5006350;28;1976;-91
2022/01/05 09:13:46;;;;;;;;;;;;;;;3.22;70.77;98918.94;5001680;28;1917;-90
2022/01/05 09:16:14;;;;;;;;;;;;;;;3.27;71.02;98920.81;4999300;28;1252;-93
2022/01/05 09:18:40;;;;;;;;;;;;;;;3.29;70.38;98935.69;5007544;28;1306;-92
2022/01/05 09:21:06;;;;;;;;;;;;;;;3.32;70.64;98923.50;4998264;28;1457;-90
2022/01/05 09:23:31;;;;;;;;;;;;;;;3.33;71.02;98928.63;4997961;28;1311;-92
2022/01/05 09:25:57;;;;;;;;;;;;;;;3.36;71.17;98924.59;4998321;28;1899;-92
2022/01/05 09:28:26;;;;;;;;;;;;;;;3.38;71.07;98917.03;4998072;28;1405;-91
2022/01/05 09:30:52;;;;;;;;;;;;;;;3.40;70.93;98920.28;5018426;28;1122;-92
2022/01/05 09:33:18;;;;;;;;;;;;;;;3.40;70.94;98931.09;5020646;28;1299;-91
2022/01/05 09:35:45;;;;;;;;;;;;;;;3.42;71.47;98935.13;5019849;28;1209;-90
2022/01/05 09:38:33;;;;;;;;;;;;;;;3.44;72.00;98926.75;5017208;28;1323;-91
2022/01/05 09:43:53;;;;;;;;;;;;;;;3.29;71.99;98922.16;5019773;28;641;-90
2022/01/05 09:46:31;;;;;;;;;;;;;;;3.31;72.13;98920.00;5032622;28;1878;-93
2022/01/05 09:49:10;;;;;;;;;;;;;;;3.31;72.03;98933.53;5041530;28;1234;-92
2022/01/05 09:51:37;;;;;;;;;;;;;;;3.32;72.26;98939.72;5041435;28;1324;-90
2022/01/05 09:54:06;;;;;;;;;;;;;;;3.33;72.78;98935.94;5026930;28;1605;-92
2022/01/05 09:56:33;;;;;;;;;;;;;;;3.37;72.61;98931.63;5016792;28;1266;-91
2022/01/05 09:59:01;;;;;;;;;;;;;;;3.36;72.68;98935.41;5016109;28;1260;-89
2022/01/05 10:01:27;;;;;;;;;;;;;;;3.38;72.84;98944.06;5015435;28;1345;-90
2022/01/05 10:03:52;;;;;;;;;;;;;;;3.26;72.62;98940.81;5016083;28;1327;-90
2022/01/05 10:06:17;;;;;;;;;;;;;;;3.21;74.00;98944.34;5005737;28;1894;-91
2022/01/05 10:08:44;;;;;;;;;;;;;;;3.16;74.27;98943.50;4995909;28;1265;-90
2022/01/05 10:11:09;;;;;;;;;;;;;;;3.10;74.60;98936.50;5002848;28;1679;-89
2022/01/05 10:13:35;;;;;;;;;;;;;;;3.09;75.14;98940.28;4995562;28;1696;-90
2022/01/05 10:16:00;;;;;;;;;;;;;;;3.00;75.35;98942.69;5003316;28;1341;-91
2022/01/05 10:18:38;;;;;;;;;;;;;;;2.97;75.92;98937.84;5014776;28;1203;-89
2022/01/05 10:21:05;;;;;;;;;;;;;;;2.88;76.76;98936.75;5015470;28;1390;-90
2022/01/05 10:23:51;;;;;;;;;;;;;;;2.89;77.27;98935.69;5008702;28;1715;-91
2022/01/05 10:26:16;;;;;;;;;;;;;;;2.80;78.12;98938.09;5032419;23;1926;-88
2022/01/05 10:28:42;;;;;;;;;;;;;;;2.72;78.91;98937.81;4994556;28;1320;-89
2022/01/05 10:31:12;;;;;;;;;;;;;;;2.56;79.20;98932.34;5014793;28;1243;-90
2022/01/05 10:33:38;;;;;;;;;;;;;;;2.57;79.71;98933.16;5014950;28;1188;-90
2022/01/05 10:36:03;;;;;;;;;;;;;;;2.57;79.87;98928.59;5014978;28;1840;-88
2022/01/05 10:38:32;;;;;;;;;;;;;;;2.60;80.58;98919.16;4994685;28;1180;-89
2022/01/05 10:40:57;;;;;;;;;;;;;;;2.69;80.80;98914.03;5011159;28;1271;-90
2022/01/05 10:43:22;;;;;;;;;;;;;;;2.78;80.23;98904.31;5001714;28;1361;-89
2022/01/05 10:45:49;;;;;;;;;;;;;;;3.03;80.68;98890.81;5013642;28;1899;-89
2022/01/05 10:48:19;;;;;;;;;;;;;;;3.15;79.78;98901.38;5014180;28;1231;-89
2022/01/05 10:50:46;;;;;;;;;;;;;;;3.25;80.12;98895.94;5014529;28;1358;-88
2022/01/05 10:53:22;;;;;;;;;;;;;;;3.15;79.97;98898.66;5014425;28;1666;-89
2022/01/05 10:55:48;;;;;;;;;;;;;;;3.24;79.84;98899.72;5013707;28;1266;-89
2022/01/05 10:58:17;;;;;;;;;;;;;;;3.11;79.50;98898.38;5013656;28;1495;-89
2022/01/05 11:00:53;;;;;;;;;;;;;;;2.85;80.54;98894.06;5014447;28;1260;-89
2022/01/05 11:03:30;;;;;;;;;;;;;;;2.79;81.02;98901.34;5015338;28;822;-89
2022/01/05 11:05:58;;;;;;;;;;;;;;;2.83;81.22;98898.91;5014265;28;1971;-88
2022/01/05 11:08:24;;;;;;;;;;;;;;;2.78;81.40;98901.63;5013278;28;1196;-88
2022/01/05 11:10:49;;;;;;;;;;;;;;;2.67;81.35;98896.19;5014656;28;922;-89
2022/01/05 11:13:14;;;;;;;;;;;;;;;2.58;81.31;98896.97;5014707;28;1565;-88
2022/01/05 11:15:39;;;;;;;;;;;;;;;2.57;81.60;98895.34;5014581;28;1291;-87
2022/01/05 11:18:09;;;;;;;;;;;;;;;2.49;81.56;98890.47;5024235;28;1726;-90
2022/01/05 11:20:35;;;;;;;;;;;;;;;2.52;81.78;98898.06;5035442;28;1725;-90
2022/01/05 11:23:01;;;;;;;;;;;;;;;2.55;81.96;98903.72;5020676;28;1689;-88
2022/01/05 11:25:26;;;;;;;;;;;;;;;2.63;81.63;98910.50;4995892;28;1778;-88
2022/01/05 11:27:51;;;;;;;;;;;;;;;2.57;82.18;98906.97;4995349;28;1894;-90
2022/01/05 11:30:17;;;;;;;;;;;;;;;2.55;81.77;98905.63;5005138;28;1726;-89
2022/01/05 11:32:42;;;;;;;;;;;;;;;2.52;82.12;98906.97;4999316;28;1603;-89
2022/01/05 11:35:07;;;;;;;;;;;;;;;2.50;82.20;98908.31;5010549;28;1797;-88
2022/01/05 11:37:34;;;;;;;;;;;;;;;2.48;82.48;98903.16;4994628;28;1048;-88
2022/01/05 11:40:02;;;;;;;;;;;;;;;2.55;82.24;98913.75;4994522;28;838;-89
2022/01/05 11:42:35;;;;;;;;;;;;;;;2.49;82.35;98920.19;4994910;28;1101;-87
2022/01/05 11:45:00;;;;;;;;;;;;;;;2.55;82.35;98933.44;4993316;28;1227;-91
2022/01/05 11:47:30;;;;;;;;;;;;;;;2.67;82.23;98922.41;5012815;28;1975;-90
2022/01/05 11:50:15;;;;;;;;;;;;;;;2.72;82.45;98924.31;5012558;28;1307;-89
2022/01/05 11:52:52;;;;;;;;;;;;;;;2.74;82.49;98920.25;5012227;28;1227;-88
2022/01/05 11:55:19;;;;;;;;;;;;;;;2.69;82.11;98927.53;5012874;28;1218;-88
2022/01/05 11:58:03;;;;;;;;;;;;;;;2.75;82.51;98927.25;5013324;28;1800;-90
2022/01/05 12:00:28;;;;;;;;;;;;;;;2.83;82.58;98929.44;5014187;28;997;-89
2022/01/05 12:02:53;;;;;;;;;;;;;;;2.87;81.95;98935.13;5012408;28;1690;-90
2022/01/05 12:05:18;;;;;;;;;;;;;;;2.89;82.68;98920.25;4993098;28;1295;-91
2022/01/05 12:07:45;;;;;;;;;;;;;;;3.04;81.91;98920.28;4996889;28;1953;-90
2022/01/05 12:10:13;;;;;;;;;;;;;;;3.07;81.79;98921.63;4994115;28;925;-90
2022/01/05 12:12:55;;;;;;;;;;;;;;;3.08;82.55;98933.25;4993844;28;1460;-90
2022/01/05 12:15:41;;;;;;;;;;;;;;;3.02;81.81;98935.13;5012688;28;1741;-90
2022/01/05 12:18:07;;;;;;;;;;;;;;;2.88;82.64;98931.34;5012778;28;1225;-89
2022/01/05 12:20:33;;;;;;;;;;;;;;;2.79;82.42;98946.47;5011956;28;1697;-90
2022/01/05 12:23:25;;;;;;;;;;;;;;;2.82;82.46;98951.31;5012885;28;1184;-90
2022/01/05 12:26:02;;;;;;;;;;;;;;;2.79;82.28;98938.38;5007254;28;1894;-90
2022/01/05 12:28:32;;;;;;;;;;;;;;;2.81;82.92;98939.69;4992661;28;1372;-90
2022/01/05 12:30:57;;;;;;;;;;;;;;;2.93;82.64;98934.03;4999630;28;1210;-90
2022/01/05 12:33:23;;;;;;;;;;;;;;;3.06;82.79;98938.13;5012592;28;1171;-90
2022/01/05 12:35:53;;;;;;;;;;;;;;;3.04;82.80;98941.91;5014283;28;1263;-88
2022/01/05 12:38:33;;;;;;;;;;;;;;;3.08;82.54;98944.88;5012694;28;1179;-89
2022/01/05 12:40:59;;;;;;;;;;;;;;;3.00;82.85;98956.22;5012241;28;1397;-88
2022/01/05 12:43:24;;;;;;;;;;;;;;;2.94;82.32;98977.03;5012230;28;1333;-88
2022/01/05 12:45:51;;;;;;;;;;;;;;;2.96;82.89;98945.16;5013160;28;1894;-88
2022/01/05 12:48:41;;;;;;;;;;;;;;;3.09;82.91;98945.69;5013515;28;1796;-89
2022/01/05 12:51:25;;;;;;;;;;;;;;;3.14;82.96;98954.63;4999152;28;1149;-88
2022/01/05 12:53:52;;;;;;;;;;;;;;;3.15;82.93;98972.44;5013056;28;1733;-89
2022/01/05 12:56:18;;;;;;;;;;;;;;;3.16;83.40;98971.34;5015641;28;1361;-88
2022/01/05 12:58:43;;;;;;;;;;;;;;;3.04;83.11;98950.00;5014749;28;1117;-88
2022/01/05 13:01:08;;;;;;;;;;;;;;;3.04;83.22;98954.59;5015637;28;1021;-88
2022/01/05 13:03:34;;;;;;;;;;;;;;;3.25;83.00;98955.41;5015108;28;1459;-87
2022/01/05 13:06:34;;;;;;;;;;;;;;;3.19;82.96;98956.50;5017691;28;2040;-88
2022/01/05 13:09:04;;;;;;;;;;;;;;;3.23;82.91;98947.56;4978051;28;1400;-88